Time;durP1;ratioP1;P1;durP2;ratioP2;P2;SDS_P1;SDS_P2;PMS_P1;PMS_P2;Temp;Humidity;BMP_temperature;BMP_pressure;BME280_temperature;BME280_humidity;BME280_pressure;Samples;Min_cycle;Max_cycle;Signal;HPM_P1;HPM_P2
2021/01/25 00:02:12;;;;;;;1.10;1.00;;;19.60;43.00;;;;;;5038094;28;20486;-68
2021/01/25 00:04:39;;;;;;;0.97;0.97;;;19.60;42.90;;;;;;5032112;28;20490;-68
2021/01/25 00:07:05;;;;;;;1.00;0.83;;;19.60;42.70;;;;;;5036358;28;20478;-67
2021/01/25 00:09:31;;;;;;;0.90;0.90;;;19.70;42.90;;;;;;5032103;28;20474;-68
2021/01/25 00:11:57;;;;;;;0.70;0.70;;;19.60;42.80;;;;;;5029722;28;20574;-68
2021/01/25 00:14:24;;;;;;;0.77;0.77;;;19.70;42.80;;;;;;5031657;28;20478;-68
2021/01/25 00:16:50;;;;;;;0.83;0.83;;;19.70;42.60;;;;;;5032307;28;20470;-67
2021/01/25 00:19:17;;;;;;;0.73;0.73;;;19.70;42.60;;;;;;5032061;28;20483;-68
2021/01/25 00:21:43;;;;;;;0.70;0.70;;;19.70;42.60;;;;;;5031960;28;20506;-68
2021/01/25 00:24:10;;;;;;;1.43;0.80;;;19.60;42.70;;;;;;5035572;28;20479;-68
2021/01/25 00:26:36;;;;;;;1.00;1.00;;;19.60;42.70;;;;;;5030787;28;20562;-68
2021/01/25 00:29:02;;;;;;;0.93;0.83;;;19.70;42.80;;;;;;5030703;28;21355;-68
2021/01/25 00:31:28;;;;;;;2.03;0.90;;;19.60;42.70;;;;;;5033918;28;20485;-68
2021/01/25 00:33:54;;;;;;;1.10;1.10;;;19.70;42.80;;;;;;5021929;28;20471;-68
2021/01/25 00:36:21;;;;;;;0.93;0.93;;;19.60;42.80;;;;;;5050611;28;20489;-68
2021/01/25 00:38:47;;;;;;;0.70;0.70;;;19.60;42.80;;;;;;5025957;28;20901;-67
2021/01/25 00:41:13;;;;;;;0.80;0.80;;;19.60;42.70;;;;;;5030120;28;20479;-67
2021/01/25 00:43:40;;;;;;;1.17;1.17;;;19.60;42.70;;;;;;5031458;28;20516;-66
2021/01/25 00:46:06;;;;;;;1.30;1.20;;;19.60;42.60;;;;;;5045623;28;20506;-65
2021/01/25 00:48:32;;;;;;;0.90;0.90;;;19.60;42.60;;;;;;5033225;28;21253;-65
2021/01/25 00:50:58;;;;;;;1.17;1.07;;;19.70;42.60;;;;;;5033452;28;21535;-65
2021/01/25 00:53:25;;;;;;;1.03;1.03;;;19.70;42.60;;;;;;5031450;28;20483;-66
2021/01/25 00:55:52;;;;;;;0.67;0.67;;;19.70;42.50;;;;;;5030044;28;20473;-67
2021/01/25 00:58:18;;;;;;;0.83;0.83;;;19.70;42.40;;;;;;5029353;28;20482;-66
2021/01/25 01:00:44;;;;;;;3.63;0.80;;;19.70;42.30;;;;;;5040417;28;20473;-66
2021/01/25 01:03:10;;;;;;;1.17;1.07;;;19.70;42.30;;;;;;5033161;28;20473;-67
2021/01/25 01:05:36;;;;;;;0.80;0.80;;;19.70;42.40;;;;;;5038881;28;21640;-67
2021/01/25 01:08:03;;;;;;;0.70;0.70;;;19.70;42.40;;;;;;5034961;28;20478;-67
2021/01/25 01:10:30;;;;;;;2.23;1.20;;;19.60;42.50;;;;;;5031245;28;20561;-67
2021/01/25 01:12:56;;;;;;;1.10;1.10;;;19.60;42.50;;;;;;4993865;28;20476;-67
2021/01/25 01:15:22;;;;;;;1.00;1.00;;;19.60;42.60;;;;;;5034511;28;20482;-67
2021/01/25 01:17:48;;;;;;;1.23;0.80;;;19.60;42.50;;;;;;5033018;28;20483;-67
2021/01/25 01:20:14;;;;;;;0.80;0.77;;;19.60;42.50;;;;;;5033027;28;21101;-67
2021/01/25 01:22:41;;;;;;;1.27;0.70;;;19.60;42.50;;;;;;5032249;28;20509;-67
2021/01/25 01:25:08;;;;;;;1.00;1.00;;;19.60;42.50;;;;;;5036922;28;20486;-67
2021/01/25 01:27:35;;;;;;;0.90;0.80;;;19.60;42.50;;;;;;5029074;28;20488;-67
2021/01/25 01:30:01;;;;;;;0.83;0.83;;;19.60;42.50;;;;;;5033404;28;20502;-67
2021/01/25 01:32:28;;;;;;;0.60;0.60;;;19.60;42.50;;;;;;5035109;28;21083;-67
2021/01/25 01:34:54;;;;;;;0.80;0.80;;;19.60;42.40;;;;;;5030842;28;20478;-67
2021/01/25 01:37:20;;;;;;;1.20;1.00;;;19.60;42.40;;;;;;5035448;28;20481;-67
2021/01/25 01:39:46;;;;;;;0.87;0.83;;;19.60;42.40;;;;;;5031378;28;20490;-67
2021/01/25 01:42:16;;;;;;;2.00;0.70;;;19.60;42.20;;;;;;5036492;28;20486;-66
2021/01/25 01:44:43;;;;;;;1.53;0.70;;;19.60;42.20;;;;;;5030942;28;20586;-67
2021/01/25 01:47:10;;;;;;;2.47;0.70;;;19.60;42.10;;;;;;5032092;28;20812;-66
2021/01/25 01:49:36;;;;;;;0.83;0.83;;;19.60;42.20;;;;;;5032274;28;20494;-67
2021/01/25 01:52:02;;;;;;;1.10;1.10;;;19.70;42.30;;;;;;5030911;28;21194;-67
2021/01/25 01:54:29;;;;;;;1.20;0.73;;;19.70;42.20;;;;;;5034424;28;20484;-68
2021/01/25 01:56:55;;;;;;;0.90;0.90;;;19.70;42.20;;;;;;5031919;28;20858;-67
2021/01/25 01:59:21;;;;;;;1.20;1.20;;;19.60;42.00;;;;;;5031157;28;20478;-67
2021/01/25 02:01:48;;;;;;;0.97;0.97;;;19.60;42.00;;;;;;5032501;28;20487;-67
2021/01/25 02:04:14;;;;;;;1.20;1.10;;;19.70;42.00;;;;;;5031425;28;20501;-67
2021/01/25 02:06:40;;;;;;;0.97;0.60;;;19.60;41.90;;;;;;5035970;28;20491;-67
2021/01/25 02:09:06;;;;;;;0.77;0.77;;;19.60;42.10;;;;;;5032799;28;20982;-67
2021/01/25 02:11:33;;;;;;;1.03;0.80;;;19.60;42.20;;;;;;5033852;28;20484;-67
2021/01/25 02:14:00;;;;;;;0.87;0.87;;;19.60;42.20;;;;;;5034829;28;20537;-67
2021/01/25 02:16:26;;;;;;;0.80;0.80;;;19.50;42.10;;;;;;5032948;28;20478;-66
2021/01/25 02:18:53;;;;;;;0.80;0.80;;;19.50;43.00;;;;;;5032256;28;21386;-66
2021/01/25 02:21:19;;;;;;;0.63;0.63;;;19.60;42.30;;;;;;5022124;28;20490;-66
2021/01/25 02:24:14;;;;;;;2.00;0.80;;;19.50;42.90;;;;;;5017796;28;20494;-67
2021/01/25 02:26:50;;;;;;;0.87;0.87;;;19.50;42.20;;;;;;5027588;28;20486;-66
2021/01/25 02:29:18;;;;;;;1.00;0.90;;;19.50;42.20;;;;;;5033411;28;20568;-67
2021/01/25 02:31:44;;;;;;;0.73;0.73;;;19.50;42.20;;;;;;5028356;28;20533;-66
2021/01/25 02:34:10;;;;;;;0.80;0.80;;;19.50;42.20;;;;;;5035256;28;20478;-66
2021/01/25 02:36:36;;;;;;;1.80;0.87;;;19.50;42.20;;;;;;5033691;28;20483;-67
2021/01/25 02:39:03;;;;;;;0.70;0.70;;;19.50;42.10;;;;;;5032060;28;20482;-66
2021/01/25 02:41:29;;;;;;;0.73;0.73;;;19.50;42.10;;;;;;5032283;28;20486;-67
2021/01/25 02:43:57;;;;;;;1.73;0.83;;;19.50;42.00;;;;;;5031563;28;20471;-66
2021/01/25 02:46:24;;;;;;;0.90;0.90;;;19.50;42.00;;;;;;5032188;28;20986;-67
2021/01/25 02:48:50;;;;;;;1.80;0.90;;;19.50;42.00;;;;;;5036344;28;20478;-67
2021/01/25 02:51:17;;;;;;;1.17;0.70;;;19.60;41.90;;;;;;5038406;28;20541;-67
2021/01/25 02:53:44;;;;;;;1.27;0.70;;;19.50;41.90;;;;;;5034805;28;20482;-67
2021/01/25 02:56:10;;;;;;;0.70;0.70;;;19.50;42.10;;;;;;5033299;28;20982;-67
2021/01/25 02:58:36;;;;;;;0.90;0.90;;;19.50;42.10;;;;;;5034139;28;20495;-66
2021/01/25 03:01:03;;;;;;;1.03;1.00;;;19.50;42.10;;;;;;5029613;28;20493;-67
2021/01/25 03:03:30;;;;;;;2.00;1.60;;;19.50;42.20;;;;;;5032972;28;20548;-68
2021/01/25 03:05:56;;;;;;;0.80;0.80;;;19.50;42.10;;;;;;5018540;28;20497;-67
2021/01/25 03:08:23;;;;;;;2.10;1.27;;;19.50;42.10;;;;;;5037871;28;20554;-67
2021/01/25 03:10:49;;;;;;;0.93;0.90;;;19.50;42.00;;;;;;5034925;28;20647;-67
2021/01/25 03:13:15;;;;;;;0.77;0.77;;;19.50;42.10;;;;;;5036165;28;20493;-67
2021/01/25 03:15:42;;;;;;;4.77;1.73;;;19.50;42.10;;;;;;5035520;28;20479;-66
2021/01/25 03:18:08;;;;;;;0.83;0.80;;;19.50;42.10;;;;;;5037479;28;21534;-67
2021/01/25 03:20:35;;;;;;;0.90;0.90;;;19.50;42.00;;;;;;5033187;28;20473;-68
2021/01/25 03:23:01;;;;;;;1.70;1.03;;;19.40;42.00;;;;;;5036513;28;20513;-72
2021/01/25 03:25:27;;;;;;;0.70;0.70;;;19.40;42.00;;;;;;5033497;28;20479;-66
2021/01/25 03:27:53;;;;;;;1.07;1.07;;;19.40;41.90;;;;;;5035305;28;21019;-67
2021/01/25 03:30:20;;;;;;;1.20;1.20;;;19.40;41.90;;;;;;5037164;28;20489;-66
2021/01/25 03:32:46;;;;;;;1.10;1.00;;;19.40;41.90;;;;;;5033945;28;21032;-67
2021/01/25 03:35:13;;;;;;;0.87;0.87;;;19.40;41.90;;;;;;5034923;28;20890;-66
2021/01/25 03:37:40;;;;;;;1.23;0.80;;;19.40;41.80;;;;;;5025918;28;20533;-67
2021/01/25 03:40:07;;;;;;;1.10;1.10;;;19.40;41.80;;;;;;5032378;28;20490;-66
2021/01/25 03:42:33;;;;;;;1.67;1.10;;;19.40;41.80;;;;;;5034218;28;20483;-66
2021/01/25 03:45:00;;;;;;;1.13;1.03;;;19.40;41.70;;;;;;5038798;28;20479;-67
2021/01/25 03:47:26;;;;;;;1.17;1.10;;;19.40;41.70;;;;;;5033070;28;20482;-66
2021/01/25 03:49:52;;;;;;;1.20;1.20;;;19.40;41.80;;;;;;5034530;28;20471;-67
2021/01/25 03:52:18;;;;;;;1.10;1.10;;;19.40;41.90;;;;;;5033516;28;21591;-66
2021/01/25 03:54:45;;;;;;;1.10;1.10;;;19.40;41.80;;;;;;5032605;28;20887;-66
2021/01/25 03:57:11;;;;;;;1.80;1.70;;;19.40;41.60;;;;;;5035637;28;20489;-66
2021/01/25 03:59:37;;;;;;;1.63;1.53;;;19.40;41.80;;;;;;5033488;28;20483;-66
2021/01/25 04:02:03;;;;;;;1.60;1.50;;;19.50;41.70;;;;;;5037851;28;20486;-68
2021/01/25 04:04:30;;;;;;;2.00;1.90;;;19.50;41.70;;;;;;5011777;28;20502;-67
2021/01/25 04:06:56;;;;;;;1.07;0.87;;;19.50;41.60;;;;;;5030605;28;20486;-67
2021/01/25 04:09:22;;;;;;;2.37;1.23;;;19.50;41.40;;;;;;5033102;28;20482;-66
2021/01/25 04:11:49;;;;;;;1.67;1.50;;;19.50;41.30;;;;;;5033001;28;20491;-67
2021/01/25 04:14:15;;;;;;;1.50;1.40;;;19.50;41.40;;;;;;5035589;28;20483;-66
2021/01/25 04:16:41;;;;;;;1.47;1.47;;;19.40;41.10;;;;;;5032546;28;20484;-66
2021/01/25 04:19:08;;;;;;;1.90;1.80;;;19.40;41.00;;;;;;5034524;28;20540;-67
2021/01/25 04:21:34;;;;;;;1.60;1.50;;;19.40;41.00;;;;;;5031030;28;20839;-66
2021/01/25 04:24:00;;;;;;;1.43;1.33;;;19.40;41.10;;;;;;5035809;28;20471;-67
2021/01/25 04:26:26;;;;;;;1.50;1.40;;;19.40;40.90;;;;;;5034020;28;20474;-67
2021/01/25 04:28:53;;;;;;;1.63;1.10;;;19.50;41.10;;;;;;5035840;28;20474;-67
2021/01/25 04:31:19;;;;;;;1.43;1.43;;;19.50;40.80;;;;;;5035582;28;21024;-67
2021/01/25 04:33:45;;;;;;;1.63;1.63;;;19.50;40.90;;;;;;5032264;28;20544;-67
2021/01/25 04:36:11;;;;;;;1.57;1.57;;;19.50;40.70;;;;;;5035532;28;20489;-66
2021/01/25 04:38:38;;;;;;;1.13;1.13;;;19.50;40.80;;;;;;5033175;28;21073;-67
2021/01/25 04:41:04;;;;;;;2.77;2.67;;;19.50;40.60;;;;;;5025873;28;20498;-66
2021/01/25 04:43:30;;;;;;;1.53;1.43;;;19.50;40.80;;;;;;5047904;28;20501;-67
2021/01/25 04:45:57;;;;;;;2.20;1.50;;;19.50;41.10;;;;;;5033852;28;21259;-67
2021/01/25 04:48:25;;;;;;;1.80;1.70;;;19.40;40.90;;;;;;5032692;28;20486;-67
2021/01/25 04:50:51;;;;;;;1.90;1.80;;;19.40;41.10;;;;;;5022534;28;20844;-66
2021/01/25 04:53:17;;;;;;;1.80;1.70;;;19.40;41.20;;;;;;5027708;28;20854;-67
2021/01/25 04:55:44;;;;;;;1.30;1.30;;;19.30;41.50;;;;;;5031329;28;20901;-67
2021/01/25 04:58:10;;;;;;;1.60;1.50;;;19.30;41.30;;;;;;5034302;28;20478;-66
2021/01/25 05:00:36;;;;;;;1.50;1.40;;;19.30;41.40;;;;;;5007844;28;20494;-67
2021/01/25 05:03:03;;;;;;;2.23;1.67;;;19.30;41.40;;;;;;5026174;28;20487;-67
2021/01/25 05:05:29;;;;;;;1.90;1.80;;;19.30;41.30;;;;;;5022574;28;20967;-67
2021/01/25 05:07:55;;;;;;;1.40;1.30;;;19.30;41.20;;;;;;5034013;28;21170;-67
2021/01/25 05:10:21;;;;;;;1.60;1.60;;;19.30;41.20;;;;;;5033559;28;20482;-67
2021/01/25 05:12:49;;;;;;;1.90;1.70;;;19.30;41.20;;;;;;5034097;28;20491;-67
2021/01/25 05:15:26;;;;;;;2.30;1.30;;;19.40;41.10;;;;;;5037577;28;20463;-67
2021/01/25 05:17:52;;;;;;;1.37;1.37;;;19.30;41.20;;;;;;5021641;28;21013;-67
2021/01/25 05:20:24;;;;;;;2.90;1.50;;;19.40;41.00;;;;;;5033341;28;20487;-67
2021/01/25 05:22:50;;;;;;;1.77;1.60;;;19.40;40.80;;;;;;5019885;28;20872;-67
2021/01/25 05:25:22;;;;;;;1.10;1.10;;;19.40;40.70;;;;;;5030062;28;20573;-67
2021/01/25 05:27:49;;;;;;;1.40;1.40;;;19.30;40.70;;;;;;5034674;28;20478;-68
2021/01/25 05:30:16;;;;;;;2.00;1.40;;;19.30;40.80;;;;;;5035605;28;21003;-67
2021/01/25 05:32:49;;;;;;;1.40;1.40;;;19.30;41.00;;;;;;5030314;28;20484;-67
2021/01/25 05:35:17;;;;;;;1.43;1.43;;;19.30;41.00;;;;;;5035428;28;20470;-68
2021/01/25 05:37:44;;;;;;;1.73;1.63;;;19.30;41.10;;;;;;5025540;28;21165;-68
2021/01/25 05:40:16;;;;;;;1.20;1.20;;;19.40;40.90;;;;;;5031853;28;20471;-67
2021/01/25 05:42:43;;;;;;;1.17;1.10;;;19.30;41.00;;;;;;5034009;28;20479;-68
2021/01/25 05:45:10;;;;;;;2.37;2.17;;;19.30;40.90;;;;;;5035937;28;20580;-67
2021/01/25 05:47:47;;;;;;;1.80;1.70;;;19.30;41.00;;;;;;5033363;28;21019;-67
2021/01/25 05:50:26;;;;;;;1.90;1.53;;;19.30;40.80;;;;;;5033018;28;20474;-67
2021/01/25 05:52:53;;;;;;;1.37;1.37;;;19.40;40.50;;;;;;5032810;28;20497;-67
2021/01/25 05:55:20;;;;;;;3.63;2.37;;;19.40;40.30;;;;;;5036003;28;20486;-67
2021/01/25 05:57:46;;;;;;;1.73;1.63;;;19.40;40.30;;;;;;5028429;28;20494;-67
2021/01/25 06:00:13;;;;;;;2.20;1.47;;;19.50;40.40;;;;;;5035186;28;21296;-67
2021/01/25 06:02:41;;;;;;;2.23;2.07;;;19.50;40.10;;;;;;5027742;28;20493;-67
2021/01/25 06:05:08;;;;;;;2.30;2.10;;;19.50;40.30;;;;;;5043897;28;20843;-67
2021/01/25 06:07:34;;;;;;;1.77;1.50;;;19.50;41.50;;;;;;5034805;28;20486;-67
2021/01/25 06:10:02;;;;;;;1.67;1.57;;;19.50;40.10;;;;;;5033770;28;20509;-66
2021/01/25 06:12:32;;;;;;;2.60;2.40;;;19.50;39.80;;;;;;5031781;28;20536;-67
2021/01/25 06:15:02;;;;;;;2.37;1.77;;;19.50;39.60;;;;;;5033764;28;20485;-67
2021/01/25 06:17:28;;;;;;;1.87;1.47;;;19.60;39.70;;;;;;5027707;28;20482;-67
2021/01/25 06:19:54;;;;;;;3.57;1.70;;;19.50;39.80;;;;;;5021718;28;20487;-67
2021/01/25 06:22:20;;;;;;;1.73;1.63;;;19.60;39.90;;;;;;5031272;28;20478;-67
2021/01/25 06:24:46;;;;;;;1.17;1.07;;;19.60;39.90;;;;;;5037584;28;21130;-68
2021/01/25 06:27:14;;;;;;;1.90;1.10;;;19.60;39.80;;;;;;5037835;28;21524;-67
2021/01/25 06:29:41;;;;;;;1.70;1.60;;;19.60;39.80;;;;;;5032441;28;20483;-66
2021/01/25 06:32:09;;;;;;;1.13;1.13;;;19.60;39.80;;;;;;5032538;28;20497;-66
2021/01/25 06:34:36;;;;;;;1.50;1.40;;;19.60;39.80;;;;;;5031480;28;20490;-67
2021/01/25 06:37:03;;;;;;;1.53;1.53;;;19.60;40.20;;;;;;5038472;28;20486;-67
2021/01/25 06:39:29;;;;;;;1.20;1.20;;;19.60;39.90;;;;;;5033008;28;20471;-66
2021/01/25 06:42:02;;;;;;;1.40;1.30;;;19.60;40.10;;;;;;5038178;28;20481;-67
2021/01/25 06:44:29;;;;;;;1.37;1.37;;;19.70;40.10;;;;;;5035846;28;20486;-67
2021/01/25 06:46:56;;;;;;;1.43;1.10;;;19.60;40.20;;;;;;5023491;28;20478;-67
2021/01/25 06:49:23;;;;;;;1.10;1.10;;;19.60;40.20;;;;;;5033381;28;20518;-67
2021/01/25 06:51:50;;;;;;;1.00;1.00;;;19.70;40.50;;;;;;5035641;28;21055;-66
2021/01/25 06:54:16;;;;;;;1.33;1.33;;;19.70;40.50;;;;;;5030582;28;20531;-67
2021/01/25 06:56:43;;;;;;;1.60;1.23;;;19.80;40.50;;;;;;5051814;28;20483;-66
2021/01/25 06:59:10;;;;;;;1.27;1.17;;;19.80;40.30;;;;;;5036002;28;20597;-66
2021/01/25 07:01:37;;;;;;;1.20;1.10;;;19.80;40.30;;;;;;5035472;28;20500;-66
2021/01/25 07:04:03;;;;;;;1.53;1.43;;;19.80;40.40;;;;;;5036527;28;20482;-67
2021/01/25 07:06:35;;;;;;;1.30;1.30;;;19.90;40.50;;;;;;5030496;28;20509;-66
2021/01/25 07:09:03;;;;;;;4.10;1.47;;;19.90;40.60;;;;;;5018830;28;20486;-67
2021/01/25 07:11:29;;;;;;;1.27;1.20;;;19.90;40.80;;;;;;5036713;28;20482;-66
2021/01/25 07:13:55;;;;;;;0.97;0.97;;;19.90;40.60;;;;;;5036257;28;20481;-66
2021/01/25 07:16:23;;;;;;;1.20;1.20;;;19.80;40.60;;;;;;5036568;28;20493;-66
2021/01/25 07:18:51;;;;;;;1.10;1.00;;;19.80;40.60;;;;;;5035754;28;20483;-67
2021/01/25 07:21:18;;;;;;;1.80;1.70;;;19.80;40.70;;;;;;5035186;28;20498;-66
2021/01/25 07:23:44;;;;;;;1.00;1.00;;;19.70;40.70;;;;;;5035094;28;20487;-67
2021/01/25 07:26:11;;;;;;;1.33;1.33;;;19.70;40.80;;;;;;5025364;28;20557;-67
2021/01/25 07:28:38;;;;;;;1.60;1.57;;;19.70;40.80;;;;;;5037422;28;20493;-67
2021/01/25 07:31:04;;;;;;;2.33;1.43;;;19.70;41.00;;;;;;5038509;28;20487;-67
2021/01/25 07:33:30;;;;;;;1.77;1.20;;;19.70;41.00;;;;;;5033875;28;20471;-67
2021/01/25 07:35:59;;;;;;;1.13;1.13;;;19.70;41.00;;;;;;5035786;28;20478;-67
2021/01/25 07:38:27;;;;;;;1.03;1.03;;;19.60;40.90;;;;;;5034179;28;20554;-66
2021/01/25 07:40:57;;;;;;;1.40;1.30;;;19.70;40.90;;;;;;5035068;28;20537;-67
2021/01/25 07:43:24;;;;;;;1.57;1.47;;;19.70;40.90;;;;;;5032233;28;20486;-67
2021/01/25 07:45:52;;;;;;;1.30;1.20;;;19.70;41.10;;;;;;5034840;28;20491;-67
2021/01/25 07:48:18;;;;;;;1.20;1.20;;;19.70;41.20;;;;;;5035724;28;20829;-67
2021/01/25 07:50:52;;;;;;;1.10;1.10;;;19.70;41.20;;;;;;5033420;28;20495;-66
2021/01/25 07:53:19;;;;;;;1.43;1.20;;;19.70;41.20;;;;;;5026879;28;20513;-67
2021/01/25 07:55:45;;;;;;;1.27;1.17;;;19.60;41.20;;;;;;5036094;28;21018;-66
2021/01/25 07:58:12;;;;;;;1.07;1.07;;;19.70;41.30;;;;;;5035564;28;20474;-67
2021/01/25 08:00:40;;;;;;;1.70;1.30;;;19.60;41.30;;;;;;5036340;28;20495;-67
2021/01/25 08:03:09;;;;;;;1.20;1.10;;;19.60;41.50;;;;;;5034581;28;20593;-67
2021/01/25 08:05:35;;;;;;;1.60;1.50;;;19.50;41.50;;;;;;5035468;28;20552;-67
2021/01/25 08:08:03;;;;;;;1.33;1.23;;;19.50;41.50;;;;;;5035588;28;20481;-67
2021/01/25 08:10:31;;;;;;;1.63;1.53;;;19.50;41.40;;;;;;5032286;28;20474;-66
2021/01/25 08:12:59;;;;;;;1.90;1.80;;;19.50;41.40;;;;;;5033380;28;20923;-67
2021/01/25 08:15:29;;;;;;;1.43;1.40;;;19.50;41.30;;;;;;5023789;28;20478;-66
2021/01/25 08:17:56;;;;;;;1.87;1.20;;;19.60;41.40;;;;;;5030897;28;20470;-67
2021/01/25 08:20:22;;;;;;;1.90;1.53;;;19.60;41.40;;;;;;5035211;28;20482;-67
2021/01/25 08:22:54;;;;;;;1.13;1.13;;;19.60;41.30;;;;;;5033428;28;20487;-67
2021/01/25 08:25:21;;;;;;;1.50;1.40;;;19.60;41.40;;;;;;5035546;28;20513;-67
2021/01/25 08:27:55;;;;;;;1.37;1.37;;;19.60;41.40;;;;;;5018576;28;20518;-67
2021/01/25 08:30:22;;;;;;;1.50;1.40;;;19.60;41.50;;;;;;5030064;28;20490;-67
2021/01/25 08:32:51;;;;;;;1.60;1.50;;;19.60;41.40;;;;;;5031046;28;20483;-68
2021/01/25 08:35:28;;;;;;;1.50;1.40;;;19.50;41.40;;;;;;5008843;28;20494;-67
2021/01/25 08:38:04;;;;;;;1.13;1.13;;;19.50;41.50;;;;;;5022037;28;20626;-67
2021/01/25 08:40:33;;;;;;;1.20;1.20;;;19.50;41.50;;;;;;5022210;28;21042;-67
2021/01/25 08:43:00;;;;;;;1.20;1.20;;;19.50;41.70;;;;;;5010901;28;20902;-68
2021/01/25 08:45:27;;;;;;;1.20;1.20;;;19.50;41.70;;;;;;5022733;28;20494;-68
2021/01/25 08:48:03;;;;;;;0.90;0.80;;;19.50;41.70;;;;;;5011061;28;20487;-68
2021/01/25 08:50:29;;;;;;;1.67;1.57;;;19.50;41.60;;;;;;5017295;28;20475;-67
2021/01/25 08:52:59;;;;;;;1.23;1.20;;;19.50;41.60;;;;;;5013655;28;20482;-68
2021/01/25 08:55:27;;;;;;;1.43;1.43;;;19.60;41.70;;;;;;5022573;28;20476;-66
2021/01/25 08:57:53;;;;;;;1.93;1.30;;;19.50;41.70;;;;;;5025075;28;20537;-67
2021/01/25 09:00:31;;;;;;;1.60;1.50;;;19.50;41.70;;;;;;5025348;28;20495;-67
2021/01/25 09:02:58;;;;;;;1.93;1.63;;;19.50;41.70;;;;;;5022652;28;20478;-67
2021/01/25 09:05:25;;;;;;;2.30;2.20;;;19.60;41.60;;;;;;5010258;28;20565;-67
2021/01/25 09:07:51;;;;;;;1.40;1.40;;;19.60;41.50;;;;;;5016587;28;20505;-68
2021/01/25 09:10:17;;;;;;;1.20;1.20;;;19.60;41.40;;;;;;5019534;28;20503;-67
2021/01/25 09:12:43;;;;;;;1.60;1.50;;;19.60;41.40;;;;;;5029901;28;20901;-68
2021/01/25 09:15:10;;;;;;;1.60;1.50;;;19.60;41.40;;;;;;5022728;28;20485;-67
2021/01/25 09:17:36;;;;;;;2.27;2.13;;;19.60;41.40;;;;;;5029786;28;21183;-68
2021/01/25 09:20:03;;;;;;;1.97;1.87;;;19.60;41.30;;;;;;5024172;28;20491;-67
2021/01/25 09:22:30;;;;;;;1.57;1.47;;;19.60;41.30;;;;;;5022074;28;20483;-68
2021/01/25 09:24:57;;;;;;;1.90;1.80;;;19.60;41.30;;;;;;5025741;28;20482;-67
2021/01/25 09:27:23;;;;;;;1.87;1.77;;;19.60;41.20;;;;;;5026547;28;20921;-67
2021/01/25 09:29:49;;;;;;;1.80;1.70;;;19.60;41.20;;;;;;5030680;28;20874;-68
2021/01/25 09:32:15;;;;;;;1.77;1.67;;;19.60;41.20;;;;;;5023239;28;20496;-68
2021/01/25 09:34:41;;;;;;;1.80;1.70;;;19.60;41.20;;;;;;5020264;28;20494;-67
2021/01/25 09:37:09;;;;;;;3.90;2.50;;;19.60;41.20;;;;;;5011176;28;20488;-67
2021/01/25 09:39:37;;;;;;;2.13;2.03;;;19.60;41.40;;;;;;5017415;28;20514;-67
2021/01/25 09:42:03;;;;;;;1.83;1.73;;;19.60;41.50;;;;;;5021732;28;20494;-67
2021/01/25 09:44:29;;;;;;;2.83;2.13;;;19.70;41.50;;;;;;5010331;28;20479;-67
2021/01/25 09:46:56;;;;;;;2.53;2.10;;;19.70;41.40;;;;;;5022989;28;20511;-67
2021/01/25 09:49:23;;;;;;;2.00;1.90;;;19.70;41.30;;;;;;5019479;28;20511;-67
2021/01/25 09:51:49;;;;;;;2.30;2.20;;;19.70;41.10;;;;;;5023153;28;20491;-67
2021/01/25 09:54:16;;;;;;;2.67;2.57;;;19.80;41.10;;;;;;5035005;28;20478;-67
2021/01/25 09:56:43;;;;;;;2.17;2.07;;;19.90;41.00;;;;;;5011130;28;20498;-68
2021/01/25 09:59:09;;;;;;;2.60;2.40;;;19.80;40.80;;;;;;5025092;28;20487;-67
2021/01/25 10:01:35;;;;;;;2.47;2.37;;;19.80;40.80;;;;;;5033074;28;21012;-66
2021/01/25 10:04:01;;;;;;;2.50;2.30;;;19.80;40.70;;;;;;5023880;28;20492;-67
2021/01/25 10:06:28;;;;;;;2.23;2.13;;;19.90;40.60;;;;;;5019873;28;20546;-67
2021/01/25 10:08:54;;;;;;;1.93;1.83;;;19.90;40.50;;;;;;5019115;28;20582;-66
2021/01/25 10:11:20;;;;;;;3.20;2.00;;;19.90;40.50;;;;;;5020019;28;20483;-68
2021/01/25 10:13:47;;;;;;;1.67;1.57;;;19.90;40.50;;;;;;5032139;28;20625;-67
2021/01/25 10:16:13;;;;;;;2.20;1.97;;;19.90;40.50;;;;;;5019006;28;20510;-67
2021/01/25 10:18:39;;;;;;;2.03;1.90;;;19.90;40.50;;;;;;5012754;28;20487;-67
2021/01/25 10:21:06;;;;;;;1.80;1.70;;;19.90;40.60;;;;;;5012297;28;20545;-68
2021/01/25 10:23:32;;;;;;;1.60;1.50;;;19.90;40.60;;;;;;5020390;28;20495;-67
2021/01/25 10:25:59;;;;;;;2.17;2.07;;;19.90;40.60;;;;;;5009732;28;21057;-68
2021/01/25 10:28:25;;;;;;;5.60;2.03;;;19.90;40.80;;;;;;5028296;28;20533;-68
2021/01/25 10:30:52;;;;;;;2.20;2.10;;;19.90;40.70;;;;;;5021243;28;20501;-68
2021/01/25 10:33:18;;;;;;;2.33;2.20;;;19.90;41.00;;;;;;5020207;28;20503;-67
2021/01/25 10:35:45;;;;;;;1.57;1.57;;;19.90;40.80;;;;;;5023543;28;20556;-67
2021/01/25 10:38:11;;;;;;;2.07;1.97;;;19.90;41.00;;;;;;5023014;28;20494;-67
2021/01/25 10:40:37;;;;;;;2.17;1.97;;;19.90;40.90;;;;;;5022255;28;20486;-68
2021/01/25 10:43:03;;;;;;;1.80;1.70;;;19.90;40.90;;;;;;5021143;28;20487;-68
2021/01/25 10:45:30;;;;;;;1.70;1.60;;;19.90;40.90;;;;;;5021627;28;20510;-67
2021/01/25 10:47:57;;;;;;;2.00;1.90;;;19.80;40.80;;;;;;5016062;28;20502;-67
2021/01/25 10:50:23;;;;;;;1.90;1.80;;;19.80;40.90;;;;;;5028336;28;21080;-67
2021/01/25 10:52:49;;;;;;;1.77;1.67;;;19.80;40.90;;;;;;5033749;28;20569;-67
2021/01/25 10:55:16;;;;;;;1.53;1.43;;;19.80;40.80;;;;;;5024127;28;20505;-68
2021/01/25 10:57:42;;;;;;;2.10;2.00;;;19.80;40.90;;;;;;5026969;28;20498;-67
2021/01/25 11:00:09;;;;;;;1.23;1.23;;;19.80;40.80;;;;;;5022538;28;20998;-67
2021/01/25 11:02:36;;;;;;;1.20;1.20;;;19.80;40.90;;;;;;5020169;28;20503;-68
2021/01/25 11:05:03;;;;;;;1.70;1.70;;;19.80;40.90;;;;;;5008905;28;21500;-68
2021/01/25 11:07:29;;;;;;;2.07;1.97;;;19.80;41.00;;;;;;5024895;28;20515;-67
2021/01/25 11:09:56;;;;;;;1.50;1.40;;;19.80;40.90;;;;;;5020973;28;20515;-68
2021/01/25 11:12:22;;;;;;;1.73;1.63;;;19.80;40.90;;;;;;5019552;28;20494;-68
2021/01/25 11:14:48;;;;;;;1.63;1.53;;;19.80;40.80;;;;;;5016200;28;21076;-67
2021/01/25 11:17:14;;;;;;;1.80;1.70;;;19.70;41.10;;;;;;5026426;28;21149;-67
2021/01/25 11:19:40;;;;;;;1.77;1.67;;;19.70;41.20;;;;;;5022796;28;20511;-68
2021/01/25 11:22:07;;;;;;;1.63;1.53;;;19.70;41.10;;;;;;5024259;28;20506;-66
2021/01/25 11:24:34;;;;;;;1.70;1.57;;;19.80;41.10;;;;;;5024303;28;20482;-67
2021/01/25 11:27:03;;;;;;;1.60;1.50;;;19.80;41.10;;;;;;5032317;28;21186;-68
2021/01/25 11:29:30;;;;;;;2.10;1.67;;;19.80;41.10;;;;;;5025446;28;20475;-68
2021/01/25 11:31:58;;;;;;;1.77;1.67;;;19.80;41.00;;;;;;5028452;28;20511;-68
2021/01/25 11:34:24;;;;;;;1.43;1.33;;;19.80;41.00;;;;;;5021607;28;20472;-68
2021/01/25 11:36:51;;;;;;;1.63;1.63;;;19.90;41.20;;;;;;5015264;28;20495;-68
2021/01/25 11:39:18;;;;;;;2.20;2.10;;;19.80;41.30;;;;;;5027822;28;20515;-68
2021/01/25 11:41:44;;;;;;;1.80;1.70;;;19.80;41.00;;;;;;5020780;28;20502;-68
2021/01/25 11:44:10;;;;;;;1.70;1.60;;;19.80;41.20;;;;;;5027506;28;20514;-68
2021/01/25 11:46:37;;;;;;;1.70;1.60;;;19.70;41.20;;;;;;5018864;28;21030;-67
2021/01/25 11:49:03;;;;;;;1.80;1.70;;;19.70;41.00;;;;;;4996574;28;20491;-67
2021/01/25 11:51:29;;;;;;;1.70;1.50;;;19.70;41.00;;;;;;5029967;28;20482;-67
2021/01/25 11:53:55;;;;;;;8.17;2.00;;;19.70;41.00;;;;;;5024166;28;20509;-68
2021/01/25 11:56:22;;;;;;;1.37;1.30;;;19.80;41.00;;;;;;5011813;28;20490;-68
2021/01/25 11:58:49;;;;;;;1.60;1.50;;;19.80;41.00;;;;;;5020395;28;20495;-67
2021/01/25 12:01:15;;;;;;;1.60;1.50;;;19.80;40.90;;;;;;5003780;28;20492;-68
2021/01/25 12:03:41;;;;;;;1.50;1.50;;;19.80;41.10;;;;;;5016177;28;20614;-67
2021/01/25 12:06:07;;;;;;;1.63;1.53;;;19.70;41.20;;;;;;5032607;28;20490;-68
2021/01/25 12:08:35;;;;;;;1.70;1.60;;;19.80;41.20;;;;;;5027448;28;20490;-67
2021/01/25 12:11:01;;;;;;;1.87;1.77;;;19.70;41.30;;;;;;5032196;28;20513;-67
2021/01/25 12:13:28;;;;;;;2.20;2.03;;;19.70;41.40;;;;;;5023371;28;21021;-67
2021/01/25 12:15:54;;;;;;;2.03;1.90;;;19.70;41.40;;;;;;5026292;28;20503;-67
2021/01/25 12:18:20;;;;;;;1.83;1.83;;;19.70;41.60;;;;;;5013538;28;20486;-68
2021/01/25 12:20:47;;;;;;;1.83;1.73;;;19.70;41.40;;;;;;5025993;28;20499;-68
2021/01/25 12:23:13;;;;;;;1.57;1.53;;;19.70;41.40;;;;;;5021488;28;20862;-68
2021/01/25 12:25:39;;;;;;;2.70;1.90;;;19.70;41.30;;;;;;5027199;28;20509;-68
2021/01/25 12:28:07;;;;;;;1.90;1.80;;;19.70;41.20;;;;;;5025488;28;20482;-68
2021/01/25 12:30:34;;;;;;;2.80;1.73;;;19.70;41.10;;;;;;5017264;28;21403;-68
2021/01/25 12:33:00;;;;;;;1.93;1.80;;;19.80;41.20;;;;;;5023119;28;20484;-68
2021/01/25 12:35:26;;;;;;;1.80;1.70;;;19.70;41.90;;;;;;5021852;28;20491;-66
2021/01/25 12:37:53;;;;;;;1.40;1.40;;;19.80;41.10;;;;;;5025837;28;20482;-66
2021/01/25 12:40:20;;;;;;;1.30;1.30;;;19.80;41.20;;;;;;5023526;28;20495;-67
2021/01/25 12:42:46;;;;;;;2.17;2.07;;;19.80;41.00;;;;;;5013209;28;20471;-67
2021/01/25 12:45:14;;;;;;;3.43;1.70;;;19.80;41.20;;;;;;5018706;28;20482;-67
2021/01/25 12:47:41;;;;;;;1.70;1.60;;;19.80;41.10;;;;;;5017720;28;20918;-67